Terminal Aerodrome Forecast
Issued by NWS

Home | Current Version | Previous Version | Text Only | Print | Product List | Glossary On
Versions: 1 2 3 4 5 6 7 8 9 10 11 12 13 14 15 16 17 18 19 20 21 22 23 24 25
000
FTAK31 PAJN 210100 AAA
TAFAJN
TAF AMD
PAJN 210128Z 2101/2124 07003KT 2SM BR OVC004
      TEMPO 2101/2105 00000KT 1/2SM FG OVC002
     FM210800 10004KT 5SM -RA BR BKN020 BKN030 OVC050
     FM211000 10006KT 6SM -RA BR SCT020 OVC040
     FM211700 10012KT 6SM -RA BR SCT020 OVC035
     FM211900 10013KT 5SM -RA BR SCT020 BKN025 OVC030=

USA.gov is the U.S. government's official web portal to all federal, state and local government web resources and services.